sensor_id;sensor_type;location;lat;lon;timestamp;temperature;humidity
15296;DHT22;7749;49.964;7.890;2024-03-17T00:01:03;7.50;99.90
15296;DHT22;7749;49.964;7.890;2024-03-17T00:03:30;7.50;99.90
15296;DHT22;7749;49.964;7.890;2024-03-17T00:06:00;7.60;99.90
15296;DHT22;7749;49.964;7.890;2024-03-17T00:08:27;7.60;99.90
15296;DHT22;7749;49.964;7.890;2024-03-17T00:10:54;7.70;99.90
15296;DHT22;7749;49.964;7.890;2024-03-17T00:13:24;7.70;99.90
15296;DHT22;7749;49.964;7.890;2024-03-17T00:15:51;7.80;99.90
15296;DHT22;7749;49.964;7.890;2024-03-17T00:18:17;7.80;99.90
15296;DHT22;7749;49.964;7.890;2024-03-17T00:20:44;7.80;99.90
15296;DHT22;7749;49.964;7.890;2024-03-17T00:23:10;7.80;99.90
15296;DHT22;7749;49.964;7.890;2024-03-17T00:25:38;7.80;99.90
15296;DHT22;7749;49.964;7.890;2024-03-17T00:28:06;7.80;99.90
15296;DHT22;7749;49.964;7.890;2024-03-17T00:30:32;7.70;99.90
15296;DHT22;7749;49.964;7.890;2024-03-17T00:32:59;7.60;99.90
15296;DHT22;7749;49.964;7.890;2024-03-17T00:35:26;7.60;99.90
15296;DHT22;7749;49.964;7.890;2024-03-17T00:37:53;7.60;99.90
15296;DHT22;7749;49.964;7.890;2024-03-17T00:40:20;7.60;99.90
15296;DHT22;7749;49.964;7.890;2024-03-17T00:42:47;7.60;99.90
15296;DHT22;7749;49.964;7.890;2024-03-17T00:45:13;7.60;99.90
15296;DHT22;7749;49.964;7.890;2024-03-17T00:47:40;7.60;99.90
15296;DHT22;7749;49.964;7.890;2024-03-17T00:50:06;7.60;99.90
15296;DHT22;7749;49.964;7.890;2024-03-17T00:52:34;7.50;99.90
15296;DHT22;7749;49.964;7.890;2024-03-17T00:55:01;7.60;99.90
15296;DHT22;7749;49.964;7.890;2024-03-17T00:57:28;7.60;99.90
15296;DHT22;7749;49.964;7.890;2024-03-17T00:59:55;7.50;99.90
15296;DHT22;7749;49.964;7.890;2024-03-17T01:02:21;7.50;99.90
15296;DHT22;7749;49.964;7.890;2024-03-17T01:04:48;7.50;99.90
15296;DHT22;7749;49.964;7.890;2024-03-17T01:07:14;7.50;99.90
15296;DHT22;7749;49.964;7.890;2024-03-17T01:09:40;7.60;99.90
15296;DHT22;7749;49.964;7.890;2024-03-17T01:12:07;7.60;99.90
15296;DHT22;7749;49.964;7.890;2024-03-17T01:14:33;7.60;99.90
15296;DHT22;7749;49.964;7.890;2024-03-17T01:17:00;7.70;99.90
15296;DHT22;7749;49.964;7.890;2024-03-17T01:19:27;7.70;99.90
15296;DHT22;7749;49.964;7.890;2024-03-17T01:21:53;7.70;99.90
15296;DHT22;7749;49.964;7.890;2024-03-17T01:24:20;7.70;99.90
15296;DHT22;7749;49.964;7.890;2024-03-17T01:26:46;7.70;99.90
15296;DHT22;7749;49.964;7.890;2024-03-17T01:29:13;7.70;99.90
15296;DHT22;7749;49.964;7.890;2024-03-17T01:31:39;7.70;99.90
15296;DHT22;7749;49.964;7.890;2024-03-17T01:34:06;7.70;99.90
15296;DHT22;7749;49.964;7.890;2024-03-17T01:36:32;7.70;99.90
15296;DHT22;7749;49.964;7.890;2024-03-17T01:38:59;7.70;99.90
15296;DHT22;7749;49.964;7.890;2024-03-17T01:41:26;7.70;99.90
15296;DHT22;7749;49.964;7.890;2024-03-17T01:43:53;7.60;99.90
15296;DHT22;7749;49.964;7.890;2024-03-17T01:46:19;7.50;99.90
15296;DHT22;7749;49.964;7.890;2024-03-17T01:48:45;7.50;99.90
15296;DHT22;7749;49.964;7.890;2024-03-17T01:51:13;7.50;99.90
15296;DHT22;7749;49.964;7.890;2024-03-17T01:53:42;7.40;99.90
15296;DHT22;7749;49.964;7.890;2024-03-17T01:56:10;7.40;99.90
15296;DHT22;7749;49.964;7.890;2024-03-17T01:58:37;7.40;99.90
15296;DHT22;7749;49.964;7.890;2024-03-17T02:01:04;7.40;99.90
15296;DHT22;7749;49.964;7.890;2024-03-17T02:03:31;7.40;99.90
15296;DHT22;7749;49.964;7.890;2024-03-17T02:05:58;7.40;99.90
15296;DHT22;7749;49.964;7.890;2024-03-17T02:08:25;7.40;99.90
15296;DHT22;7749;49.964;7.890;2024-03-17T02:10:55;7.40;99.90
15296;DHT22;7749;49.964;7.890;2024-03-17T02:13:21;7.30;99.90
15296;DHT22;7749;49.964;7.890;2024-03-17T02:15:48;7.30;99.90
15296;DHT22;7749;49.964;7.890;2024-03-17T02:18:14;7.30;99.90
15296;DHT22;7749;49.964;7.890;2024-03-17T02:20:41;7.30;99.90
15296;DHT22;7749;49.964;7.890;2024-03-17T02:23:26;7.30;99.90
15296;DHT22;7749;49.964;7.890;2024-03-17T02:25:53;7.30;99.90
15296;DHT22;7749;49.964;7.890;2024-03-17T02:28:20;7.30;99.90
15296;DHT22;7749;49.964;7.890;2024-03-17T02:30:46;7.30;99.90
15296;DHT22;7749;49.964;7.890;2024-03-17T02:33:13;7.30;99.90
15296;DHT22;7749;49.964;7.890;2024-03-17T02:35:39;7.30;99.90
15296;DHT22;7749;49.964;7.890;2024-03-17T02:38:06;7.30;99.90
15296;DHT22;7749;49.964;7.890;2024-03-17T02:40:34;7.30;99.90
15296;DHT22;7749;49.964;7.890;2024-03-17T02:43:00;7.30;99.90
15296;DHT22;7749;49.964;7.890;2024-03-17T02:45:27;7.30;99.90
15296;DHT22;7749;49.964;7.890;2024-03-17T02:47:53;7.30;99.90
15296;DHT22;7749;49.964;7.890;2024-03-17T02:50:19;7.20;99.90
15296;DHT22;7749;49.964;7.890;2024-03-17T02:52:46;7.20;99.90
15296;DHT22;7749;49.964;7.890;2024-03-17T02:55:12;7.20;99.90
15296;DHT22;7749;49.964;7.890;2024-03-17T02:57:38;7.10;99.90
15296;DHT22;7749;49.964;7.890;2024-03-17T03:00:05;7.00;99.90
15296;DHT22;7749;49.964;7.890;2024-03-17T03:02:35;6.90;99.90
15296;DHT22;7749;49.964;7.890;2024-03-17T03:05:01;6.90;99.90
15296;DHT22;7749;49.964;7.890;2024-03-17T03:07:27;6.80;99.90
15296;DHT22;7749;49.964;7.890;2024-03-17T03:09:54;6.80;99.90
15296;DHT22;7749;49.964;7.890;2024-03-17T03:12:20;6.80;99.90
15296;DHT22;7749;49.964;7.890;2024-03-17T03:14:47;6.70;99.90
15296;DHT22;7749;49.964;7.890;2024-03-17T03:17:13;6.60;99.90
15296;DHT22;7749;49.964;7.890;2024-03-17T03:19:39;6.60;99.90
15296;DHT22;7749;49.964;7.890;2024-03-17T03:22:06;6.60;99.90
15296;DHT22;7749;49.964;7.890;2024-03-17T03:24:32;6.50;99.90
15296;DHT22;7749;49.964;7.890;2024-03-17T03:26:58;6.50;99.90
15296;DHT22;7749;49.964;7.890;2024-03-17T03:29:25;6.40;99.90
15296;DHT22;7749;49.964;7.890;2024-03-17T03:31:51;6.30;99.90
15296;DHT22;7749;49.964;7.890;2024-03-17T03:34:17;6.30;99.90
15296;DHT22;7749;49.964;7.890;2024-03-17T03:36:44;6.20;99.90
15296;DHT22;7749;49.964;7.890;2024-03-17T03:39:10;6.20;99.90
15296;DHT22;7749;49.964;7.890;2024-03-17T03:41:38;6.10;99.90
15296;DHT22;7749;49.964;7.890;2024-03-17T03:44:05;6.10;99.90
15296;DHT22;7749;49.964;7.890;2024-03-17T03:46:31;6.10;99.90
15296;DHT22;7749;49.964;7.890;2024-03-17T03:48:57;6.10;99.90
15296;DHT22;7749;49.964;7.890;2024-03-17T03:51:24;6.10;99.90
15296;DHT22;7749;49.964;7.890;2024-03-17T03:53:51;6.10;99.90
15296;DHT22;7749;49.964;7.890;2024-03-17T03:56:18;6.10;99.90
15296;DHT22;7749;49.964;7.890;2024-03-17T03:58:46;6.10;99.90
15296;DHT22;7749;49.964;7.890;2024-03-17T04:01:13;6.00;99.90
15296;DHT22;7749;49.964;7.890;2024-03-17T04:03:47;6.00;99.90
15296;DHT22;7749;49.964;7.890;2024-03-17T04:06:15;6.00;99.90
15296;DHT22;7749;49.964;7.890;2024-03-17T04:08:42;6.00;99.90
15296;DHT22;7749;49.964;7.890;2024-03-17T04:11:09;6.10;99.90
15296;DHT22;7749;49.964;7.890;2024-03-17T04:13:37;6.10;99.90
15296;DHT22;7749;49.964;7.890;2024-03-17T04:16:04;6.10;99.90
15296;DHT22;7749;49.964;7.890;2024-03-17T04:18:32;6.10;99.90
15296;DHT22;7749;49.964;7.890;2024-03-17T04:21:05;6.20;99.90
15296;DHT22;7749;49.964;7.890;2024-03-17T04:23:33;6.20;99.90
15296;DHT22;7749;49.964;7.890;2024-03-17T04:26:00;6.20;99.90
15296;DHT22;7749;49.964;7.890;2024-03-17T04:28:27;6.20;99.90
15296;DHT22;7749;49.964;7.890;2024-03-17T04:31:02;6.20;99.90
15296;DHT22;7749;49.964;7.890;2024-03-17T04:33:31;6.20;99.90
15296;DHT22;7749;49.964;7.890;2024-03-17T04:35:58;6.20;99.90
15296;DHT22;7749;49.964;7.890;2024-03-17T04:38:24;6.20;99.90
15296;DHT22;7749;49.964;7.890;2024-03-17T04:40:51;6.10;99.90
15296;DHT22;7749;49.964;7.890;2024-03-17T04:43:17;6.20;99.90
15296;DHT22;7749;49.964;7.890;2024-03-17T04:45:44;6.20;99.90
15296;DHT22;7749;49.964;7.890;2024-03-17T04:48:11;6.20;99.90
15296;DHT22;7749;49.964;7.890;2024-03-17T04:50:37;6.20;99.90
15296;DHT22;7749;49.964;7.890;2024-03-17T04:53:03;6.10;99.90
15296;DHT22;7749;49.964;7.890;2024-03-17T04:55:30;6.10;99.90
15296;DHT22;7749;49.964;7.890;2024-03-17T04:57:56;6.00;99.90
15296;DHT22;7749;49.964;7.890;2024-03-17T05:00:23;5.90;99.90
15296;DHT22;7749;49.964;7.890;2024-03-17T05:02:50;5.90;99.90
15296;DHT22;7749;49.964;7.890;2024-03-17T05:05:16;5.80;99.90
15296;DHT22;7749;49.964;7.890;2024-03-17T05:07:43;5.80;99.90
15296;DHT22;7749;49.964;7.890;2024-03-17T05:10:09;5.70;99.90
15296;DHT22;7749;49.964;7.890;2024-03-17T05:12:36;5.70;99.90
15296;DHT22;7749;49.964;7.890;2024-03-17T05:15:02;5.60;99.90
15296;DHT22;7749;49.964;7.890;2024-03-17T05:17:31;5.60;99.90
15296;DHT22;7749;49.964;7.890;2024-03-17T05:19:58;5.60;99.90
15296;DHT22;7749;49.964;7.890;2024-03-17T05:22:24;5.60;99.90
15296;DHT22;7749;49.964;7.890;2024-03-17T05:24:50;5.60;99.90
15296;DHT22;7749;49.964;7.890;2024-03-17T05:27:17;5.60;99.90
15296;DHT22;7749;49.964;7.890;2024-03-17T05:29:43;5.50;99.90
15296;DHT22;7749;49.964;7.890;2024-03-17T05:32:09;5.50;99.90
15296;DHT22;7749;49.964;7.890;2024-03-17T05:34:37;5.50;99.90
15296;DHT22;7749;49.964;7.890;2024-03-17T05:37:04;5.50;99.90
15296;DHT22;7749;49.964;7.890;2024-03-17T05:39:30;5.50;99.90
15296;DHT22;7749;49.964;7.890;2024-03-17T05:41:56;5.50;99.90
15296;DHT22;7749;49.964;7.890;2024-03-17T05:44:23;5.60;99.90
15296;DHT22;7749;49.964;7.890;2024-03-17T05:46:49;5.50;99.90
15296;DHT22;7749;49.964;7.890;2024-03-17T05:49:19;5.50;99.90
15296;DHT22;7749;49.964;7.890;2024-03-17T05:51:47;5.50;99.90
15296;DHT22;7749;49.964;7.890;2024-03-17T05:54:13;5.50;99.90
15296;DHT22;7749;49.964;7.890;2024-03-17T05:56:39;5.60;99.90
15296;DHT22;7749;49.964;7.890;2024-03-17T05:59:06;5.60;99.90
15296;DHT22;7749;49.964;7.890;2024-03-17T06:01:32;5.60;99.90
15296;DHT22;7749;49.964;7.890;2024-03-17T06:03:59;5.60;99.90
15296;DHT22;7749;49.964;7.890;2024-03-17T06:06:26;5.60;99.90
15296;DHT22;7749;49.964;7.890;2024-03-17T06:08:52;5.70;99.90
15296;DHT22;7749;49.964;7.890;2024-03-17T06:11:18;5.70;99.90
15296;DHT22;7749;49.964;7.890;2024-03-17T06:13:45;5.80;99.90
15296;DHT22;7749;49.964;7.890;2024-03-17T06:16:11;5.70;99.90
15296;DHT22;7749;49.964;7.890;2024-03-17T06:18:37;5.60;99.90
15296;DHT22;7749;49.964;7.890;2024-03-17T06:21:05;5.60;99.90
15296;DHT22;7749;49.964;7.890;2024-03-17T06:23:31;5.60;99.90
15296;DHT22;7749;49.964;7.890;2024-03-17T06:25:58;5.60;99.90
15296;DHT22;7749;49.964;7.890;2024-03-17T06:28:25;5.60;99.90
15296;DHT22;7749;49.964;7.890;2024-03-17T06:30:57;5.70;99.90
15296;DHT22;7749;49.964;7.890;2024-03-17T06:33:30;5.80;99.90
15296;DHT22;7749;49.964;7.890;2024-03-17T06:36:01;5.90;99.90
15296;DHT22;7749;49.964;7.890;2024-03-17T06:38:27;6.10;99.90
15296;DHT22;7749;49.964;7.890;2024-03-17T06:40:53;6.20;99.90
15296;DHT22;7749;49.964;7.890;2024-03-17T06:43:20;6.40;99.90
15296;DHT22;7749;49.964;7.890;2024-03-17T06:45:56;6.50;99.90
15296;DHT22;7749;49.964;7.890;2024-03-17T06:48:23;6.60;99.90
15296;DHT22;7749;49.964;7.890;2024-03-17T06:50:49;6.80;99.90
15296;DHT22;7749;49.964;7.890;2024-03-17T06:53:18;6.80;99.90
15296;DHT22;7749;49.964;7.890;2024-03-17T06:55:58;6.90;99.90
15296;DHT22;7749;49.964;7.890;2024-03-17T06:58:26;7.00;99.90
15296;DHT22;7749;49.964;7.890;2024-03-17T07:00:58;7.10;99.90
15296;DHT22;7749;49.964;7.890;2024-03-17T07:03:30;7.10;99.90
15296;DHT22;7749;49.964;7.890;2024-03-17T07:05:58;7.30;99.90
15296;DHT22;7749;49.964;7.890;2024-03-17T07:08:26;7.40;99.90
15296;DHT22;7749;49.964;7.890;2024-03-17T07:11:10;7.50;99.90
15296;DHT22;7749;49.964;7.890;2024-03-17T07:13:37;7.50;99.90
15296;DHT22;7749;49.964;7.890;2024-03-17T07:16:05;7.50;99.90
15296;DHT22;7749;49.964;7.890;2024-03-17T07:18:32;7.50;99.90
15296;DHT22;7749;49.964;7.890;2024-03-17T07:21:00;7.50;99.90
15296;DHT22;7749;49.964;7.890;2024-03-17T07:23:27;7.60;99.90
15296;DHT22;7749;49.964;7.890;2024-03-17T07:25:55;7.80;99.90
15296;DHT22;7749;49.964;7.890;2024-03-17T07:28:22;7.90;99.90
15296;DHT22;7749;49.964;7.890;2024-03-17T07:30:56;8.10;99.90
15296;DHT22;7749;49.964;7.890;2024-03-17T07:33:24;8.20;99.90
15296;DHT22;7749;49.964;7.890;2024-03-17T07:35:52;8.30;99.90
15296;DHT22;7749;49.964;7.890;2024-03-17T07:38:19;8.40;99.90
15296;DHT22;7749;49.964;7.890;2024-03-17T07:40:55;8.40;99.90
15296;DHT22;7749;49.964;7.890;2024-03-17T07:43:24;8.70;99.90
15296;DHT22;7749;49.964;7.890;2024-03-17T07:48:34;9.00;99.90
15296;DHT22;7749;49.964;7.890;2024-03-17T07:51:06;9.10;99.90
15296;DHT22;7749;49.964;7.890;2024-03-17T07:53:35;9.20;99.90
15296;DHT22;7749;49.964;7.890;2024-03-17T07:56:04;9.30;99.90
15296;DHT22;7749;49.964;7.890;2024-03-17T07:58:33;9.30;99.90
15296;DHT22;7749;49.964;7.890;2024-03-17T08:01:00;9.40;99.90
15296;DHT22;7749;49.964;7.890;2024-03-17T08:03:28;9.60;99.90
15296;DHT22;7749;49.964;7.890;2024-03-17T08:05:54;9.80;99.90
15296;DHT22;7749;49.964;7.890;2024-03-17T08:08:21;10.00;99.90
15296;DHT22;7749;49.964;7.890;2024-03-17T08:10:47;9.90;99.90
15296;DHT22;7749;49.964;7.890;2024-03-17T08:13:17;10.10;99.90
15296;DHT22;7749;49.964;7.890;2024-03-17T08:15:45;10.10;99.90
15296;DHT22;7749;49.964;7.890;2024-03-17T08:18:12;10.00;99.90
15296;DHT22;7749;49.964;7.890;2024-03-17T08:20:39;10.10;99.90
15296;DHT22;7749;49.964;7.890;2024-03-17T08:23:06;10.20;99.90
15296;DHT22;7749;49.964;7.890;2024-03-17T08:25:33;10.40;99.90
15296;DHT22;7749;49.964;7.890;2024-03-17T08:28:01;10.50;99.90
15296;DHT22;7749;49.964;7.890;2024-03-17T08:30:27;10.50;99.90
15296;DHT22;7749;49.964;7.890;2024-03-17T08:32:54;10.80;99.90
15296;DHT22;7749;49.964;7.890;2024-03-17T08:35:20;10.80;99.90
15296;DHT22;7749;49.964;7.890;2024-03-17T08:37:47;10.80;99.90
15296;DHT22;7749;49.964;7.890;2024-03-17T08:40:14;10.80;99.90
15296;DHT22;7749;49.964;7.890;2024-03-17T08:42:40;10.80;99.90
15296;DHT22;7749;49.964;7.890;2024-03-17T08:45:07;10.80;99.90
15296;DHT22;7749;49.964;7.890;2024-03-17T08:47:34;10.90;99.90
15296;DHT22;7749;49.964;7.890;2024-03-17T08:50:00;11.00;97.60
15296;DHT22;7749;49.964;7.890;2024-03-17T08:52:30;10.90;96.10
15296;DHT22;7749;49.964;7.890;2024-03-17T08:54:59;10.70;96.30
15296;DHT22;7749;49.964;7.890;2024-03-17T08:57:26;10.70;99.00
15296;DHT22;7749;49.964;7.890;2024-03-17T08:59:52;10.90;97.50
15296;DHT22;7749;49.964;7.890;2024-03-17T09:02:19;11.00;96.90
15296;DHT22;7749;49.964;7.890;2024-03-17T09:04:48;11.20;93.90
15296;DHT22;7749;49.964;7.890;2024-03-17T09:07:14;11.40;92.50
15296;DHT22;7749;49.964;7.890;2024-03-17T09:09:46;11.50;91.60
15296;DHT22;7749;49.964;7.890;2024-03-17T09:12:12;11.60;90.20
15296;DHT22;7749;49.964;7.890;2024-03-17T09:14:38;11.70;85.60
15296;DHT22;7749;49.964;7.890;2024-03-17T09:17:07;11.90;84.90
15296;DHT22;7749;49.964;7.890;2024-03-17T09:19:33;12.10;80.10
15296;DHT22;7749;49.964;7.890;2024-03-17T09:21:59;12.30;77.30
15296;DHT22;7749;49.964;7.890;2024-03-17T09:24:26;12.40;74.50
15296;DHT22;7749;49.964;7.890;2024-03-17T09:26:52;12.70;68.20
15296;DHT22;7749;49.964;7.890;2024-03-17T09:29:19;13.00;64.10
15296;DHT22;7749;49.964;7.890;2024-03-17T09:31:46;12.90;55.70
15296;DHT22;7749;49.964;7.890;2024-03-17T09:34:12;13.10;58.70
15296;DHT22;7749;49.964;7.890;2024-03-17T09:36:38;13.20;53.60
15296;DHT22;7749;49.964;7.890;2024-03-17T09:39:05;13.30;52.30
15296;DHT22;7749;49.964;7.890;2024-03-17T09:41:31;13.70;49.10
15296;DHT22;7749;49.964;7.890;2024-03-17T09:43:58;13.80;45.90
15296;DHT22;7749;49.964;7.890;2024-03-17T09:46:26;14.10;40.50
15296;DHT22;7749;49.964;7.890;2024-03-17T09:48:54;14.20;37.60
15296;DHT22;7749;49.964;7.890;2024-03-17T09:51:23;14.20;35.20
15296;DHT22;7749;49.964;7.890;2024-03-17T09:53:50;14.10;36.00
15296;DHT22;7749;49.964;7.890;2024-03-17T09:56:18;13.80;34.00
15296;DHT22;7749;49.964;7.890;2024-03-17T10:01:12;13.40;37.40
15296;DHT22;7749;49.964;7.890;2024-03-17T10:03:42;13.50;37.30
15296;DHT22;7749;49.964;7.890;2024-03-17T10:06:09;13.50;36.00
15296;DHT22;7749;49.964;7.890;2024-03-17T10:11:31;13.60;37.90
15296;DHT22;7749;49.964;7.890;2024-03-17T10:14:06;13.70;37.30
15296;DHT22;7749;49.964;7.890;2024-03-17T10:16:35;13.70;36.30
15296;DHT22;7749;49.964;7.890;2024-03-17T10:19:16;13.70;37.80
15296;DHT22;7749;49.964;7.890;2024-03-17T10:21:47;13.90;34.80
15296;DHT22;7749;49.964;7.890;2024-03-17T10:24:21;13.90;33.50
15296;DHT22;7749;49.964;7.890;2024-03-17T10:26:58;13.80;36.00
15296;DHT22;7749;49.964;7.890;2024-03-17T10:29:32;14.10;33.60
15296;DHT22;7749;49.964;7.890;2024-03-17T10:32:12;14.30;32.30
15296;DHT22;7749;49.964;7.890;2024-03-17T10:34:43;14.60;30.70
15296;DHT22;7749;49.964;7.890;2024-03-17T10:37:20;14.90;27.60
15296;DHT22;7749;49.964;7.890;2024-03-17T10:39:51;14.90;27.80
15296;DHT22;7749;49.964;7.890;2024-03-17T10:42:25;15.40;27.20
15296;DHT22;7749;49.964;7.890;2024-03-17T10:44:54;15.60;23.30
15296;DHT22;7749;49.964;7.890;2024-03-17T10:47:32;15.80;22.50
15296;DHT22;7749;49.964;7.890;2024-03-17T10:50:00;15.80;18.60
15296;DHT22;7749;49.964;7.890;2024-03-17T10:52:33;15.40;14.30
15296;DHT22;7749;49.964;7.890;2024-03-17T10:55:05;15.40;17.90
15296;DHT22;7749;49.964;7.890;2024-03-17T10:57:46;15.40;18.00
15296;DHT22;7749;49.964;7.890;2024-03-17T11:00:17;15.30;18.90
15296;DHT22;7749;49.964;7.890;2024-03-17T11:02:45;15.40;18.20
15296;DHT22;7749;49.964;7.890;2024-03-17T11:07:44;15.70;14.40
15296;DHT22;7749;49.964;7.890;2024-03-17T11:10:23;15.80;14.40
15296;DHT22;7749;49.964;7.890;2024-03-17T11:12:51;16.90;9.60
15296;DHT22;7749;49.964;7.890;2024-03-17T11:21:03;20.10;1.00
15296;DHT22;7749;49.964;7.890;2024-03-17T11:23:41;21.50;1.00
15296;DHT22;7749;49.964;7.890;2024-03-17T11:26:07;20.50;1.00
15296;DHT22;7749;49.964;7.890;2024-03-17T11:28:45;19.50;1.00
15296;DHT22;7749;49.964;7.890;2024-03-17T11:34:29;19.40;1.00
15296;DHT22;7749;49.964;7.890;2024-03-17T11:36:57;18.80;1.00
15296;DHT22;7749;49.964;7.890;2024-03-17T11:39:56;18.50;1.00
15296;DHT22;7749;49.964;7.890;2024-03-17T11:42:26;17.70;1.00
15296;DHT22;7749;49.964;7.890;2024-03-17T11:45:01;18.50;1.00
15296;DHT22;7749;49.964;7.890;2024-03-17T11:47:39;20.20;1.00
15296;DHT22;7749;49.964;7.890;2024-03-17T11:50:08;21.30;1.00
15296;DHT22;7749;49.964;7.890;2024-03-17T11:52:38;21.60;1.00
15296;DHT22;7749;49.964;7.890;2024-03-17T11:55:15;21.20;1.00
15296;DHT22;7749;49.964;7.890;2024-03-17T11:57:43;20.90;1.00
15296;DHT22;7749;49.964;7.890;2024-03-17T12:00:22;20.50;1.00
15296;DHT22;7749;49.964;7.890;2024-03-17T12:02:49;19.80;1.00
15296;DHT22;7749;49.964;7.890;2024-03-17T12:05:16;19.70;1.00
15296;DHT22;7749;49.964;7.890;2024-03-17T12:07:43;19.80;1.00
15296;DHT22;7749;49.964;7.890;2024-03-17T12:10:12;19.20;1.00
15296;DHT22;7749;49.964;7.890;2024-03-17T12:12:40;18.30;1.00
15296;DHT22;7749;49.964;7.890;2024-03-17T12:15:20;17.90;1.00
15296;DHT22;7749;49.964;7.890;2024-03-17T12:17:52;17.40;1.00
15296;DHT22;7749;49.964;7.890;2024-03-17T12:20:20;16.90;1.00
15296;DHT22;7749;49.964;7.890;2024-03-17T12:22:47;16.80;1.00
15296;DHT22;7749;49.964;7.890;2024-03-17T12:25:18;16.80;1.00
15296;DHT22;7749;49.964;7.890;2024-03-17T12:27:46;16.80;1.00
15296;DHT22;7749;49.964;7.890;2024-03-17T12:30:13;16.80;1.00
15296;DHT22;7749;49.964;7.890;2024-03-17T12:32:40;17.00;1.00
15296;DHT22;7749;49.964;7.890;2024-03-17T12:35:13;17.00;1.00
15296;DHT22;7749;49.964;7.890;2024-03-17T12:37:44;16.80;1.00
15296;DHT22;7749;49.964;7.890;2024-03-17T12:40:21;16.40;1.00
15296;DHT22;7749;49.964;7.890;2024-03-17T12:42:50;16.30;1.00
15296;DHT22;7749;49.964;7.890;2024-03-17T12:45:21;16.00;1.00
15296;DHT22;7749;49.964;7.890;2024-03-17T12:47:49;15.90;1.00
15296;DHT22;7749;49.964;7.890;2024-03-17T12:50:16;15.70;1.00
15296;DHT22;7749;49.964;7.890;2024-03-17T12:52:54;15.70;1.00
15296;DHT22;7749;49.964;7.890;2024-03-17T12:55:22;15.70;1.00
15296;DHT22;7749;49.964;7.890;2024-03-17T12:58:08;15.70;1.00
15296;DHT22;7749;49.964;7.890;2024-03-17T13:01:04;15.60;1.00
15296;DHT22;7749;49.964;7.890;2024-03-17T13:03:35;15.50;1.00
15296;DHT22;7749;49.964;7.890;2024-03-17T13:06:03;15.50;1.00
15296;DHT22;7749;49.964;7.890;2024-03-17T13:08:35;15.50;1.00
15296;DHT22;7749;49.964;7.890;2024-03-17T13:11:02;15.60;1.00
15296;DHT22;7749;49.964;7.890;2024-03-17T13:13:31;15.70;1.00
15296;DHT22;7749;49.964;7.890;2024-03-17T13:15:58;15.70;1.00
15296;DHT22;7749;49.964;7.890;2024-03-17T13:18:24;15.60;1.00
15296;DHT22;7749;49.964;7.890;2024-03-17T13:20:51;15.40;1.00
15296;DHT22;7749;49.964;7.890;2024-03-17T13:23:20;15.20;1.00
15296;DHT22;7749;49.964;7.890;2024-03-17T13:25:47;15.10;1.00
15296;DHT22;7749;49.964;7.890;2024-03-17T13:28:14;15.10;1.00
15296;DHT22;7749;49.964;7.890;2024-03-17T13:30:41;15.10;1.00
15296;DHT22;7749;49.964;7.890;2024-03-17T13:33:08;15.00;1.00
15296;DHT22;7749;49.964;7.890;2024-03-17T13:35:36;14.90;1.00
15296;DHT22;7749;49.964;7.890;2024-03-17T13:38:09;14.90;1.00
15296;DHT22;7749;49.964;7.890;2024-03-17T13:40:39;14.80;1.00
15296;DHT22;7749;49.964;7.890;2024-03-17T13:43:06;14.80;1.00
15296;DHT22;7749;49.964;7.890;2024-03-17T13:45:41;14.80;1.00
15296;DHT22;7749;49.964;7.890;2024-03-17T13:48:09;14.80;1.00
15296;DHT22;7749;49.964;7.890;2024-03-17T13:50:39;15.10;1.00
15296;DHT22;7749;49.964;7.890;2024-03-17T13:53:07;15.30;1.00
15296;DHT22;7749;49.964;7.890;2024-03-17T13:55:34;15.50;1.00
15296;DHT22;7749;49.964;7.890;2024-03-17T13:58:01;15.50;4.70
15296;DHT22;7749;49.964;7.890;2024-03-17T14:00:29;15.50;5.80
15296;DHT22;7749;49.964;7.890;2024-03-17T14:02:56;15.50;1.00
15296;DHT22;7749;49.964;7.890;2024-03-17T14:05:23;15.40;99.90
15296;DHT22;7749;49.964;7.890;2024-03-17T14:07:51;15.20;1.00
15296;DHT22;7749;49.964;7.890;2024-03-17T14:10:19;15.40;1.00
15296;DHT22;7749;49.964;7.890;2024-03-17T14:12:46;15.40;1.00
15296;DHT22;7749;49.964;7.890;2024-03-17T14:15:14;15.40;1.00
15296;DHT22;7749;49.964;7.890;2024-03-17T14:17:42;15.40;1.00
15296;DHT22;7749;49.964;7.890;2024-03-17T14:20:10;15.40;1.00
15296;DHT22;7749;49.964;7.890;2024-03-17T14:22:43;15.40;1.00
15296;DHT22;7749;49.964;7.890;2024-03-17T14:25:15;15.40;1.00
15296;DHT22;7749;49.964;7.890;2024-03-17T14:27:43;15.50;1.00
15296;DHT22;7749;49.964;7.890;2024-03-17T14:30:11;15.80;7.00
15296;DHT22;7749;49.964;7.890;2024-03-17T14:32:39;15.80;6.40
15296;DHT22;7749;49.964;7.890;2024-03-17T14:35:06;16.00;6.80
15296;DHT22;7749;49.964;7.890;2024-03-17T14:37:37;16.40;4.80
15296;DHT22;7749;49.964;7.890;2024-03-17T14:40:04;17.00;2.80
15296;DHT22;7749;49.964;7.890;2024-03-17T14:42:37;18.10;1.00
15296;DHT22;7749;49.964;7.890;2024-03-17T14:45:04;18.60;1.00
15296;DHT22;7749;49.964;7.890;2024-03-17T14:47:30;18.50;1.00
15296;DHT22;7749;49.964;7.890;2024-03-17T14:49:57;18.60;1.00
15296;DHT22;7749;49.964;7.890;2024-03-17T14:52:23;18.80;1.00
15296;DHT22;7749;49.964;7.890;2024-03-17T14:54:50;19.80;1.00
15296;DHT22;7749;49.964;7.890;2024-03-17T14:57:19;21.60;1.00
15296;DHT22;7749;49.964;7.890;2024-03-17T14:59:47;23.80;1.00
15296;DHT22;7749;49.964;7.890;2024-03-17T15:02:13;25.50;1.00
15296;DHT22;7749;49.964;7.890;2024-03-17T15:04:40;26.40;1.00
15296;DHT22;7749;49.964;7.890;2024-03-17T15:07:06;26.20;1.00
15296;DHT22;7749;49.964;7.890;2024-03-17T15:09:35;24.50;1.00
15296;DHT22;7749;49.964;7.890;2024-03-17T15:12:01;22.20;1.00
15296;DHT22;7749;49.964;7.890;2024-03-17T15:14:29;20.40;1.00
15296;DHT22;7749;49.964;7.890;2024-03-17T15:16:57;19.20;1.00
15296;DHT22;7749;49.964;7.890;2024-03-17T15:19:24;18.00;1.00
15296;DHT22;7749;49.964;7.890;2024-03-17T15:21:51;17.20;1.00
15296;DHT22;7749;49.964;7.890;2024-03-17T15:24:17;16.70;1.00
15296;DHT22;7749;49.964;7.890;2024-03-17T15:26:43;16.40;1.00
15296;DHT22;7749;49.964;7.890;2024-03-17T15:29:10;16.00;99.90
15296;DHT22;7749;49.964;7.890;2024-03-17T15:31:38;15.90;99.90
15296;DHT22;7749;49.964;7.890;2024-03-17T15:34:07;15.80;99.90
15296;DHT22;7749;49.964;7.890;2024-03-17T15:36:33;15.70;99.90
15296;DHT22;7749;49.964;7.890;2024-03-17T15:39:00;15.60;1.00
15296;DHT22;7749;49.964;7.890;2024-03-17T15:41:26;15.50;1.00
15296;DHT22;7749;49.964;7.890;2024-03-17T15:43:53;15.30;1.00
15296;DHT22;7749;49.964;7.890;2024-03-17T15:46:19;15.20;1.00
15296;DHT22;7749;49.964;7.890;2024-03-17T15:48:49;15.10;1.00
15296;DHT22;7749;49.964;7.890;2024-03-17T15:51:15;15.10;40.20
15296;DHT22;7749;49.964;7.890;2024-03-17T15:53:44;15.00;99.90
15296;DHT22;7749;49.964;7.890;2024-03-17T15:56:11;15.00;99.90
15296;DHT22;7749;49.964;7.890;2024-03-17T15:58:37;14.90;99.90
15296;DHT22;7749;49.964;7.890;2024-03-17T16:01:06;14.70;1.00
15296;DHT22;7749;49.964;7.890;2024-03-17T16:03:37;14.70;1.00
15296;DHT22;7749;49.964;7.890;2024-03-17T16:06:16;14.60;1.00
15296;DHT22;7749;49.964;7.890;2024-03-17T16:08:45;14.50;1.00
15296;DHT22;7749;49.964;7.890;2024-03-17T16:11:13;14.40;1.00
15296;DHT22;7749;49.964;7.890;2024-03-17T16:13:44;14.30;1.00
15296;DHT22;7749;49.964;7.890;2024-03-17T16:16:16;14.30;8.90
15296;DHT22;7749;49.964;7.890;2024-03-17T16:18:44;14.20;11.50
15296;DHT22;7749;49.964;7.890;2024-03-17T16:21:15;14.20;99.90
15296;DHT22;7749;49.964;7.890;2024-03-17T16:23:49;14.10;99.90